Bei Facebook empfehlenBei Twitter postenGoogle plusPinterest

Das Wetter im Erzgebirge am 11.08.2017

Wetter und Klima am 11.08.2017 Holzhau im Erzgebirge (630m ü.NN)
Letzte gemessene Temperatur und Uhrzeit der Messung23:45:00 Uhr11.80 °C
Temperatur (Maximum / Höchstwert) und Uhrzeit der Messung00:00:00 Uhr17.60 °C
Temperatur (Minimum / Tiefstwert) und Uhrzeit der Messung23:45:0011.80 °C
Errechneter Absolutwert der Temperaturschwankungen zwischen Tmin und Tmax des Tages5.80 K
Errechnete Tagesmitteltemperatur14.76667 °C
Gesamt - Niederschlag des Tages (in flüssiger Form)9.85 Liter / m²
Luftdruck (Maximum / Höchstwert) und Zeitpunkt der Messung11:00:00 Uhr1013.40 hPa
Luftdruck (Minimum / Tiefstwert) und Zeitpunkt der Messung15:30:00 Uhr1009.20 hPa
Errechneter Absolutwert der Luftdruckschwankungen des Tages4.20 hPa
Höchste gemessene Windgeschwindigkeit und Uhrzeit der Messung12:15:00 Uhr32.40 km/h
Errechnete Windhäufigkeit in Relation zu den Messwerten des Tages3.12500 %
Niedrigste Windkühle (Windchill) und Zeitpunkt der Messung23:45:00 Uhr11.80 °C
Taupunkt (Maximum / Höchstwert) und Uhrzeit der Messung00:15:00 Uhr16.50 °C
Taupunkt (Minimum / Tiefstwert) und Uhrzeit der Messung23:45:0010.90 °C
Anzahl der automatisch eingelesenen Messwerte 96

Detaillierte Wetter- und Klima- Messwerte für den 11.08.2017 in Holzhau im Erzgebirge (630m ü.NN)
ZeitTemperaturLuftdruckRel. LuftfeuchteWindWindrichtungWindchillTaupunktNiederschlag l/m²
23:45:0011.80 °C1010.30 hPa94.00 %10.90 °C9.85
23:30:0012.20 °C1010.00 hPa95.00 %11.40 °C9.85
23:15:0012.30 °C1010.30 hPa95.00 %11.50 °C9.85
23:00:0012.40 °C1010.20 hPa95.00 %11.60 °C9.85
22:45:0012.50 °C1010.30 hPa95.00 %11.70 °C9.85
22:30:0012.50 °C1010.30 hPa95.00 %11.70 °C9.85
22:15:0012.50 °C1010.20 hPa95.00 %11.70 °C9.85
22:00:0012.60 °C1010.10 hPa95.00 %11.80 °C9.85
21:45:0012.50 °C1010.40 hPa95.00 %11.70 °C9.85
21:30:0012.60 °C1010.10 hPa95.00 %11.80 °C9.85
21:15:0013.10 °C1009.90 hPa95.00 %12.30 °C9.85
21:00:0013.10 °C1009.80 hPa95.00 %12.30 °C9.85
20:45:0013.20 °C1009.70 hPa95.00 %12.40 °C9.85
20:30:0013.30 °C1009.30 hPa95.00 %12.50 °C9.85
20:15:0013.60 °C1009.30 hPa95.00 %12.80 °C9.85
20:00:0013.80 °C1009.40 hPa95.00 %13.00 °C9.85
19:45:0013.90 °C1009.50 hPa95.00 %13.10 °C9.85
19:30:0013.80 °C1009.80 hPa95.00 %13.00 °C9.85
19:15:0013.80 °C1009.80 hPa95.00 %13.00 °C9.85
19:00:0013.70 °C1010.40 hPa95.00 %12.90 °C9.33
18:45:0013.70 °C1010.30 hPa95.00 %12.90 °C9.33
18:30:0013.80 °C1010.10 hPa95.00 %13.00 °C9.33
18:15:0013.90 °C1010.00 hPa95.00 %13.10 °C9.33
18:00:0013.80 °C1009.70 hPa95.00 %13.00 °C9.33
17:45:0014.10 °C1009.80 hPa95.00 %13.30 °C9.33
17:30:0014.60 °C1010.10 hPa95.00 %13.80 °C9.33
17:15:0014.60 °C1009.80 hPa95.00 %13.80 °C9.33
17:00:0014.50 °C1010.00 hPa95.00 %13.70 °C9.33
16:45:0014.20 °C1010.20 hPa95.00 %13.40 °C9.33
16:30:0013.70 °C1010.30 hPa95.00 %12.90 °C9.33
16:15:0013.60 °C1011.10 hPa95.00 %12.80 °C8.81
16:00:0013.60 °C1011.60 hPa95.00 %12.80 °C8.29
15:45:0013.80 °C1011.40 hPa95.00 %13.00 °C8.29
15:30:0013.80 °C1009.20 hPa95.00 %13.00 °C7.77
15:15:0013.80 °C1010.20 hPa94.00 %12.90 °C6.22
15:00:0013.90 °C1010.40 hPa94.00 %13.00 °C5.70
14:45:0014.20 °C1010.30 hPa94.00 %13.20 °C4.67
14:30:0014.30 °C1010.80 hPa93.00 %13.20 °C4.15
14:15:0014.30 °C1011.50 hPa93.00 %13.20 °C3.63
14:00:0014.40 °C1011.80 hPa92.00 %13.10 °C2.59
13:45:0014.90 °C1012.20 hPa92.00 %13.60 °C2.08
13:30:0015.10 °C1011.70 hPa91.00 %13.60 °C2.08
13:15:0015.20 °C1011.60 hPa91.00 %13.70 °C2.08
13:00:0015.50 °C1012.20 hPa90.00 %13.90 °C2.08
12:45:0015.90 °C1011.20 hPa90.00 %14.30 °C2.08
12:30:0016.20 °C1010.60 hPa90.00 %14.60 °C2.08
12:15:0016.90 °C1010.80 hPa89.00 %32.40 km/hS17.00 °C15.10 °C2.08
12:00:0017.30 °C1010.40 hPa94.00 %16.30 °C2.08
11:45:0015.80 °C1010.80 hPa95.00 %15.00 °C2.08
11:30:0014.50 °C1009.60 hPa94.00 %13.50 °C2.08
11:15:0014.40 °C1012.10 hPa94.00 %13.40 °C2.08
11:00:0014.50 °C1013.40 hPa94.00 %13.50 °C1.56
10:45:0014.50 °C1013.00 hPa94.00 %13.50 °C1.56
10:30:0014.30 °C1012.10 hPa94.00 %16.92 km/hSW14.30 °C13.30 °C1.56
10:15:0014.20 °C1010.90 hPa93.00 %13.10 °C1.56
10:00:0014.40 °C1011.70 hPa92.00 %13.10 °C1.04
09:45:0014.60 °C1012.10 hPa91.00 %13.10 °C 
09:30:0014.90 °C1012.00 hPa92.00 %13.60 °C 
09:15:0015.20 °C1011.50 hPa92.00 %13.90 °C 
09:00:0015.30 °C1011.40 hPa93.00 %14.20 °C 
08:45:0014.70 °C1011.50 hPa94.00 %13.70 °C 
08:30:0014.40 °C1010.90 hPa94.00 %13.40 °C 
08:15:0014.40 °C1010.80 hPa94.00 %13.40 °C 
08:00:0014.20 °C1011.30 hPa95.00 %13.40 °C 
07:45:0014.20 °C1011.40 hPa95.00 %13.40 °C 
07:30:0014.20 °C1011.60 hPa95.00 %13.40 °C 
07:15:0014.40 °C1011.30 hPa95.00 %13.60 °C 
07:00:0014.50 °C1011.30 hPa94.00 %13.50 °C 
06:45:0014.80 °C1011.30 hPa94.00 %13.80 °C 
06:30:0014.90 °C1010.90 hPa94.00 %13.90 °C 
06:15:0015.20 °C1011.20 hPa95.00 %14.40 °C 
06:00:0015.30 °C1011.20 hPa95.00 %14.50 °C 
05:45:0015.50 °C1011.00 hPa95.00 %14.70 °C 
05:30:0015.60 °C1011.10 hPa95.00 %14.80 °C 
05:15:0015.80 °C1011.00 hPa95.00 %15.00 °C 
05:00:0015.80 °C1010.80 hPa95.00 %15.00 °C 
04:45:0016.00 °C1010.80 hPa95.00 %15.20 °C 
04:30:0016.10 °C1011.00 hPa95.00 %16.92 km/hSO16.10 °C15.30 °C 
04:15:0015.80 °C1010.80 hPa95.00 %15.00 °C 
04:00:0015.60 °C1010.90 hPa94.00 %14.60 °C 
03:45:0016.00 °C1010.70 hPa94.00 %15.00 °C 
03:30:0016.30 °C1010.70 hPa94.00 %15.30 °C 
03:15:0016.40 °C1011.30 hPa94.00 %15.40 °C 
03:00:0016.70 °C1011.50 hPa94.00 %15.70 °C 
02:45:0016.90 °C1011.40 hPa94.00 %15.90 °C 
02:30:0017.10 °C1011.50 hPa94.00 %16.10 °C 
02:15:0017.20 °C1011.50 hPa94.00 %16.20 °C 
02:00:0017.30 °C1011.40 hPa94.00 %16.30 °C 
01:45:0017.30 °C1011.60 hPa94.00 %16.30 °C 
01:30:0017.40 °C1011.50 hPa94.00 %16.40 °C 
01:15:0017.30 °C1011.60 hPa94.00 %16.30 °C 
01:00:0017.30 °C1012.10 hPa94.00 %16.30 °C 
00:45:0017.20 °C1011.90 hPa94.00 %16.20 °C 
00:30:0017.30 °C1011.60 hPa94.00 %16.30 °C 
00:15:0017.50 °C1011.30 hPa94.00 %16.50 °C 
00:00:0017.60 °C1011.30 hPa93.00 %16.50 °C 

Permanenter Link zu dieser Seite: Wetter im Erzgebirge am 11.08.2017
Performance-Info: Die Erstellung der Seite / Statistik(en) / Tabelle(n) erforderte 5 Datenbankserver-Abfrage(n) und dauerte 123 Millisekunden. (Dieser Messwert ist von der Gesamt-Auslastung des Servers abhängig.)
Erzgebirge - Wetter | Erzgebirge - Wetter (Mobilgeräte) | Komplette Klimadatenbank